sensor_id;sensor_type;location;lat;lon;timestamp;temperature;humidity
25949;DHT22;13961;51.178;4.448;2023-01-26T00:00:45;1.80;99.90
25949;DHT22;13961;51.178;4.448;2023-01-26T00:03:10;2.30;99.90
25949;DHT22;13961;51.178;4.448;2023-01-26T00:05:37;2.20;99.90
25949;DHT22;13961;51.178;4.448;2023-01-26T00:08:02;2.40;99.90
25949;DHT22;13961;51.178;4.448;2023-01-26T00:10:28;2.20;99.90
25949;DHT22;13961;51.178;4.448;2023-01-26T00:12:54;2.30;99.90
25949;DHT22;13961;51.178;4.448;2023-01-26T00:15:19;2.10;99.90
25949;DHT22;13961;51.178;4.448;2023-01-26T00:17:45;2.30;99.90
25949;DHT22;13961;51.178;4.448;2023-01-26T00:20:12;2.30;99.90
25949;DHT22;13961;51.178;4.448;2023-01-26T00:22:37;2.20;99.90
25949;DHT22;13961;51.178;4.448;2023-01-26T00:25:03;2.10;99.90
25949;DHT22;13961;51.178;4.448;2023-01-26T00:27:31;2.00;99.90
25949;DHT22;13961;51.178;4.448;2023-01-26T00:29:57;1.80;99.90
25949;DHT22;13961;51.178;4.448;2023-01-26T00:32:23;2.10;99.90
25949;DHT22;13961;51.178;4.448;2023-01-26T00:34:49;1.80;99.90
25949;DHT22;13961;51.178;4.448;2023-01-26T00:37:15;2.20;99.90
25949;DHT22;13961;51.178;4.448;2023-01-26T00:39:40;2.10;99.90
25949;DHT22;13961;51.178;4.448;2023-01-26T00:42:06;2.00;99.90
25949;DHT22;13961;51.178;4.448;2023-01-26T00:44:35;1.60;99.90
25949;DHT22;13961;51.178;4.448;2023-01-26T00:47:01;1.80;99.90
25949;DHT22;13961;51.178;4.448;2023-01-26T00:49:26;2.00;99.90
25949;DHT22;13961;51.178;4.448;2023-01-26T00:51:52;1.90;99.90
25949;DHT22;13961;51.178;4.448;2023-01-26T00:54:18;2.30;99.90
25949;DHT22;13961;51.178;4.448;2023-01-26T00:56:43;2.10;99.90
25949;DHT22;13961;51.178;4.448;2023-01-26T00:59:09;2.40;99.90
25949;DHT22;13961;51.178;4.448;2023-01-26T01:01:35;2.20;99.90
25949;DHT22;13961;51.178;4.448;2023-01-26T01:04:00;2.30;99.90
25949;DHT22;13961;51.178;4.448;2023-01-26T01:06:26;2.60;99.90
25949;DHT22;13961;51.178;4.448;2023-01-26T01:08:52;2.50;99.90
25949;DHT22;13961;51.178;4.448;2023-01-26T01:11:17;2.60;99.90
25949;DHT22;13961;51.178;4.448;2023-01-26T01:13:43;2.70;99.90
25949;DHT22;13961;51.178;4.448;2023-01-26T01:16:11;3.00;99.90
25949;DHT22;13961;51.178;4.448;2023-01-26T01:18:38;2.80;99.90
25949;DHT22;13961;51.178;4.448;2023-01-26T01:21:12;2.90;99.90
25949;DHT22;13961;51.178;4.448;2023-01-26T01:23:38;2.60;99.90
25949;DHT22;13961;51.178;4.448;2023-01-26T01:26:04;2.50;99.90
25949;DHT22;13961;51.178;4.448;2023-01-26T01:28:32;2.50;99.90
25949;DHT22;13961;51.178;4.448;2023-01-26T01:30:58;2.60;99.90
25949;DHT22;13961;51.178;4.448;2023-01-26T01:33:25;2.40;99.90
25949;DHT22;13961;51.178;4.448;2023-01-26T01:36:02;2.30;99.90
25949;DHT22;13961;51.178;4.448;2023-01-26T01:38:28;2.50;99.90
25949;DHT22;13961;51.178;4.448;2023-01-26T01:40:54;2.50;99.90
25949;DHT22;13961;51.178;4.448;2023-01-26T01:43:20;2.40;99.90
25949;DHT22;13961;51.178;4.448;2023-01-26T01:45:47;2.20;99.90
25949;DHT22;13961;51.178;4.448;2023-01-26T01:48:48;2.30;99.90
25949;DHT22;13961;51.178;4.448;2023-01-26T01:51:58;2.30;99.90
25949;DHT22;13961;51.178;4.448;2023-01-26T01:57:16;2.40;99.90
25949;DHT22;13961;51.178;4.448;2023-01-26T01:59:59;2.50;99.90
25949;DHT22;13961;51.178;4.448;2023-01-26T02:02:25;2.50;99.90
25949;DHT22;13961;51.178;4.448;2023-01-26T02:04:52;2.60;99.90
25949;DHT22;13961;51.178;4.448;2023-01-26T02:07:18;2.60;99.90
25949;DHT22;13961;51.178;4.448;2023-01-26T02:09:44;2.40;99.90
25949;DHT22;13961;51.178;4.448;2023-01-26T02:12:30;2.70;99.90
25949;DHT22;13961;51.178;4.448;2023-01-26T02:14:57;2.30;99.90
25949;DHT22;13961;51.178;4.448;2023-01-26T02:17:23;2.40;99.90
25949;DHT22;13961;51.178;4.448;2023-01-26T02:20:25;2.70;99.90
25949;DHT22;13961;51.178;4.448;2023-01-26T02:25:33;2.20;99.90
25949;DHT22;13961;51.178;4.448;2023-01-26T02:28:01;2.30;99.90
25949;DHT22;13961;51.178;4.448;2023-01-26T02:30:28;2.30;99.90
25949;DHT22;13961;51.178;4.448;2023-01-26T02:32:54;2.50;99.90
25949;DHT22;13961;51.178;4.448;2023-01-26T02:35:20;2.90;99.90
25949;DHT22;13961;51.178;4.448;2023-01-26T02:37:46;2.80;99.90
25949;DHT22;13961;51.178;4.448;2023-01-26T02:40:32;2.90;99.90
25949;DHT22;13961;51.178;4.448;2023-01-26T02:43:00;2.90;99.90
25949;DHT22;13961;51.178;4.448;2023-01-26T02:45:27;3.10;99.90
25949;DHT22;13961;51.178;4.448;2023-01-26T02:47:54;2.90;99.90
25949;DHT22;13961;51.178;4.448;2023-01-26T02:50:20;2.90;99.90
25949;DHT22;13961;51.178;4.448;2023-01-26T02:52:46;2.90;99.90
25949;DHT22;13961;51.178;4.448;2023-01-26T02:55:11;3.00;99.90
25949;DHT22;13961;51.178;4.448;2023-01-26T02:57:58;3.10;99.90
25949;DHT22;13961;51.178;4.448;2023-01-26T03:00:30;3.30;99.90
25949;DHT22;13961;51.178;4.448;2023-01-26T03:02:58;3.10;99.90
25949;DHT22;13961;51.178;4.448;2023-01-26T03:05:27;3.10;99.90
25949;DHT22;13961;51.178;4.448;2023-01-26T03:07:54;3.40;99.90
25949;DHT22;13961;51.178;4.448;2023-01-26T03:10:20;3.40;99.90
25949;DHT22;13961;51.178;4.448;2023-01-26T03:12:48;3.20;99.90
25949;DHT22;13961;51.178;4.448;2023-01-26T03:15:14;3.10;99.90
25949;DHT22;13961;51.178;4.448;2023-01-26T03:18:06;3.20;99.90
25949;DHT22;13961;51.178;4.448;2023-01-26T03:20:51;3.20;99.90
25949;DHT22;13961;51.178;4.448;2023-01-26T03:23:35;3.10;99.90
25949;DHT22;13961;51.178;4.448;2023-01-26T03:26:19;3.00;99.90
25949;DHT22;13961;51.178;4.448;2023-01-26T03:29:03;3.00;99.90
25949;DHT22;13961;51.178;4.448;2023-01-26T03:31:28;3.10;99.90
25949;DHT22;13961;51.178;4.448;2023-01-26T03:33:54;3.20;99.90
25949;DHT22;13961;51.178;4.448;2023-01-26T03:36:20;3.20;99.90
25949;DHT22;13961;51.178;4.448;2023-01-26T03:38:45;3.20;99.90
25949;DHT22;13961;51.178;4.448;2023-01-26T03:41:11;3.20;99.90
25949;DHT22;13961;51.178;4.448;2023-01-26T03:43:56;3.30;99.90
25949;DHT22;13961;51.178;4.448;2023-01-26T03:46:40;3.30;99.90
25949;DHT22;13961;51.178;4.448;2023-01-26T03:49:24;3.30;99.90
25949;DHT22;13961;51.178;4.448;2023-01-26T03:52:08;3.10;99.90
25949;DHT22;13961;51.178;4.448;2023-01-26T03:54:52;3.20;99.90
25949;DHT22;13961;51.178;4.448;2023-01-26T03:57:37;3.30;99.90
25949;DHT22;13961;51.178;4.448;2023-01-26T04:00:03;3.50;99.90
25949;DHT22;13961;51.178;4.448;2023-01-26T04:02:29;3.10;99.90
25949;DHT22;13961;51.178;4.448;2023-01-26T04:05:14;3.50;99.90
25949;DHT22;13961;51.178;4.448;2023-01-26T04:08:03;3.10;99.90
25949;DHT22;13961;51.178;4.448;2023-01-26T04:10:45;3.20;99.90
25949;DHT22;13961;51.178;4.448;2023-01-26T04:13:10;3.20;99.90
25949;DHT22;13961;51.178;4.448;2023-01-26T04:15:55;3.30;99.90
25949;DHT22;13961;51.178;4.448;2023-01-26T04:18:39;3.20;99.90
25949;DHT22;13961;51.178;4.448;2023-01-26T04:21:24;3.30;99.90
25949;DHT22;13961;51.178;4.448;2023-01-26T04:24:01;3.20;99.90
25949;DHT22;13961;51.178;4.448;2023-01-26T04:26:35;3.30;99.90
25949;DHT22;13961;51.178;4.448;2023-01-26T04:29:12;3.50;99.90
25949;DHT22;13961;51.178;4.448;2023-01-26T04:31:39;3.50;99.90
25949;DHT22;13961;51.178;4.448;2023-01-26T04:34:09;3.30;99.90
25949;DHT22;13961;51.178;4.448;2023-01-26T04:36:34;3.30;99.90
25949;DHT22;13961;51.178;4.448;2023-01-26T04:39:00;3.50;99.90
25949;DHT22;13961;51.178;4.448;2023-01-26T04:41:28;3.50;99.90
25949;DHT22;13961;51.178;4.448;2023-01-26T04:43:54;3.30;99.90
25949;DHT22;13961;51.178;4.448;2023-01-26T04:46:20;3.60;99.90
25949;DHT22;13961;51.178;4.448;2023-01-26T04:48:45;3.40;99.90
25949;DHT22;13961;51.178;4.448;2023-01-26T04:51:14;3.70;99.90
25949;DHT22;13961;51.178;4.448;2023-01-26T04:53:40;3.60;99.90
25949;DHT22;13961;51.178;4.448;2023-01-26T04:56:07;3.70;99.90
25949;DHT22;13961;51.178;4.448;2023-01-26T04:58:36;3.30;99.90
25949;DHT22;13961;51.178;4.448;2023-01-26T05:01:03;3.30;99.90
25949;DHT22;13961;51.178;4.448;2023-01-26T05:03:28;3.30;99.90
25949;DHT22;13961;51.178;4.448;2023-01-26T05:05:54;3.50;99.90
25949;DHT22;13961;51.178;4.448;2023-01-26T05:08:21;3.30;99.90
25949;DHT22;13961;51.178;4.448;2023-01-26T05:10:47;3.20;99.90
25949;DHT22;13961;51.178;4.448;2023-01-26T05:13:13;3.60;99.90
25949;DHT22;13961;51.178;4.448;2023-01-26T05:15:39;3.70;99.90
25949;DHT22;13961;51.178;4.448;2023-01-26T05:18:05;3.80;99.90
25949;DHT22;13961;51.178;4.448;2023-01-26T05:20:32;3.70;99.90
25949;DHT22;13961;51.178;4.448;2023-01-26T05:22:58;3.50;99.90
25949;DHT22;13961;51.178;4.448;2023-01-26T05:25:24;3.80;99.90
25949;DHT22;13961;51.178;4.448;2023-01-26T05:27:50;3.80;99.90
25949;DHT22;13961;51.178;4.448;2023-01-26T05:30:17;3.50;99.90
25949;DHT22;13961;51.178;4.448;2023-01-26T05:32:43;3.80;99.90
25949;DHT22;13961;51.178;4.448;2023-01-26T05:35:09;3.50;99.90
25949;DHT22;13961;51.178;4.448;2023-01-26T05:37:35;3.50;99.90
25949;DHT22;13961;51.178;4.448;2023-01-26T05:40:01;3.60;99.90
25949;DHT22;13961;51.178;4.448;2023-01-26T05:42:26;3.20;99.90
25949;DHT22;13961;51.178;4.448;2023-01-26T05:44:52;3.10;99.90
25949;DHT22;13961;51.178;4.448;2023-01-26T05:47:18;3.20;99.90
25949;DHT22;13961;51.178;4.448;2023-01-26T05:49:44;3.30;99.90
25949;DHT22;13961;51.178;4.448;2023-01-26T05:52:13;3.40;99.90
25949;DHT22;13961;51.178;4.448;2023-01-26T05:54:39;3.60;99.90
25949;DHT22;13961;51.178;4.448;2023-01-26T05:57:05;3.50;99.90
25949;DHT22;13961;51.178;4.448;2023-01-26T05:59:31;3.50;99.90
25949;DHT22;13961;51.178;4.448;2023-01-26T06:01:57;3.50;99.90
25949;DHT22;13961;51.178;4.448;2023-01-26T06:04:24;3.60;99.90
25949;DHT22;13961;51.178;4.448;2023-01-26T06:06:56;3.90;99.90
25949;DHT22;13961;51.178;4.448;2023-01-26T06:09:22;3.70;99.90
25949;DHT22;13961;51.178;4.448;2023-01-26T06:11:49;3.50;99.90
25949;DHT22;13961;51.178;4.448;2023-01-26T06:14:14;3.80;99.90
25949;DHT22;13961;51.178;4.448;2023-01-26T06:16:40;3.80;99.90
25949;DHT22;13961;51.178;4.448;2023-01-26T06:19:07;3.60;99.90
25949;DHT22;13961;51.178;4.448;2023-01-26T06:21:34;3.60;99.90
25949;DHT22;13961;51.178;4.448;2023-01-26T06:24:00;3.50;99.90
25949;DHT22;13961;51.178;4.448;2023-01-26T06:26:26;3.60;99.90
25949;DHT22;13961;51.178;4.448;2023-01-26T06:28:53;3.50;99.90
25949;DHT22;13961;51.178;4.448;2023-01-26T06:31:19;3.60;99.90
25949;DHT22;13961;51.178;4.448;2023-01-26T06:33:45;3.50;99.90
25949;DHT22;13961;51.178;4.448;2023-01-26T06:36:13;3.50;99.90
25949;DHT22;13961;51.178;4.448;2023-01-26T06:38:48;3.00;99.90
25949;DHT22;13961;51.178;4.448;2023-01-26T06:41:15;2.80;99.90
25949;DHT22;13961;51.178;4.448;2023-01-26T06:43:45;2.70;99.90
25949;DHT22;13961;51.178;4.448;2023-01-26T06:46:11;3.10;99.90
25949;DHT22;13961;51.178;4.448;2023-01-26T06:48:37;3.10;99.90
25949;DHT22;13961;51.178;4.448;2023-01-26T06:53:55;3.20;99.90
25949;DHT22;13961;51.178;4.448;2023-01-26T06:56:22;3.40;99.90
25949;DHT22;13961;51.178;4.448;2023-01-26T06:58:48;3.80;99.90
25949;DHT22;13961;51.178;4.448;2023-01-26T07:01:17;3.70;99.90
25949;DHT22;13961;51.178;4.448;2023-01-26T07:03:43;3.60;99.90
25949;DHT22;13961;51.178;4.448;2023-01-26T07:06:08;3.80;99.90
25949;DHT22;13961;51.178;4.448;2023-01-26T07:08:37;4.00;99.90
25949;DHT22;13961;51.178;4.448;2023-01-26T07:11:03;4.10;99.90
25949;DHT22;13961;51.178;4.448;2023-01-26T07:13:29;4.00;99.90
25949;DHT22;13961;51.178;4.448;2023-01-26T07:18:27;4.00;99.90
25949;DHT22;13961;51.178;4.448;2023-01-26T07:21:02;4.40;99.90
25949;DHT22;13961;51.178;4.448;2023-01-26T07:23:28;4.30;99.90
25949;DHT22;13961;51.178;4.448;2023-01-26T07:25:53;4.40;99.90
25949;DHT22;13961;51.178;4.448;2023-01-26T07:28:19;4.30;99.90
25949;DHT22;13961;51.178;4.448;2023-01-26T07:30:46;4.10;99.90
25949;DHT22;13961;51.178;4.448;2023-01-26T07:33:13;4.10;99.90
25949;DHT22;13961;51.178;4.448;2023-01-26T07:35:39;4.40;99.90
25949;DHT22;13961;51.178;4.448;2023-01-26T07:38:06;4.20;99.90
25949;DHT22;13961;51.178;4.448;2023-01-26T07:40:32;4.40;99.90
25949;DHT22;13961;51.178;4.448;2023-01-26T07:42:58;4.20;99.90
25949;DHT22;13961;51.178;4.448;2023-01-26T07:45:25;4.40;99.90
25949;DHT22;13961;51.178;4.448;2023-01-26T07:47:54;4.50;99.90
25949;DHT22;13961;51.178;4.448;2023-01-26T07:50:20;4.20;99.90
25949;DHT22;13961;51.178;4.448;2023-01-26T07:52:47;4.10;99.90
25949;DHT22;13961;51.178;4.448;2023-01-26T07:55:12;4.00;99.90
25949;DHT22;13961;51.178;4.448;2023-01-26T07:57:39;3.90;99.90
25949;DHT22;13961;51.178;4.448;2023-01-26T08:00:06;4.10;99.90
25949;DHT22;13961;51.178;4.448;2023-01-26T08:02:31;4.00;99.90
25949;DHT22;13961;51.178;4.448;2023-01-26T08:04:57;4.10;99.90
25949;DHT22;13961;51.178;4.448;2023-01-26T08:07:24;4.20;99.90
25949;DHT22;13961;51.178;4.448;2023-01-26T08:09:50;4.50;99.90
25949;DHT22;13961;51.178;4.448;2023-01-26T08:12:15;4.40;99.90
25949;DHT22;13961;51.178;4.448;2023-01-26T08:14:41;4.50;99.90
25949;DHT22;13961;51.178;4.448;2023-01-26T08:17:07;4.50;99.90
25949;DHT22;13961;51.178;4.448;2023-01-26T08:19:32;4.70;99.90
25949;DHT22;13961;51.178;4.448;2023-01-26T08:21:58;4.50;99.90
25949;DHT22;13961;51.178;4.448;2023-01-26T08:24:23;4.70;99.90
25949;DHT22;13961;51.178;4.448;2023-01-26T08:26:51;4.50;99.90
25949;DHT22;13961;51.178;4.448;2023-01-26T08:29:16;4.60;99.90
25949;DHT22;13961;51.178;4.448;2023-01-26T08:31:42;4.60;99.90
25949;DHT22;13961;51.178;4.448;2023-01-26T08:34:08;4.50;99.90
25949;DHT22;13961;51.178;4.448;2023-01-26T08:36:34;4.80;99.90
25949;DHT22;13961;51.178;4.448;2023-01-26T08:39:00;4.70;99.90
25949;DHT22;13961;51.178;4.448;2023-01-26T08:41:27;4.90;99.90
25949;DHT22;13961;51.178;4.448;2023-01-26T08:43:52;4.90;99.90
25949;DHT22;13961;51.178;4.448;2023-01-26T08:46:19;4.70;99.90
25949;DHT22;13961;51.178;4.448;2023-01-26T08:48:45;4.90;99.90
25949;DHT22;13961;51.178;4.448;2023-01-26T08:51:10;4.70;99.90
25949;DHT22;13961;51.178;4.448;2023-01-26T08:53:36;4.50;99.90
25949;DHT22;13961;51.178;4.448;2023-01-26T08:56:06;4.70;99.90
25949;DHT22;13961;51.178;4.448;2023-01-26T08:58:33;4.60;99.90
25949;DHT22;13961;51.178;4.448;2023-01-26T09:01:04;4.80;99.90
25949;DHT22;13961;51.178;4.448;2023-01-26T09:03:30;4.70;99.90
25949;DHT22;13961;51.178;4.448;2023-01-26T09:05:59;5.10;99.90
25949;DHT22;13961;51.178;4.448;2023-01-26T09:08:25;4.80;99.90
25949;DHT22;13961;51.178;4.448;2023-01-26T09:10:51;4.90;99.90
25949;DHT22;13961;51.178;4.448;2023-01-26T09:13:17;5.10;99.90
25949;DHT22;13961;51.178;4.448;2023-01-26T09:15:42;4.90;99.90
25949;DHT22;13961;51.178;4.448;2023-01-26T09:18:10;5.00;99.90
25949;DHT22;13961;51.178;4.448;2023-01-26T09:20:38;4.90;99.90
25949;DHT22;13961;51.178;4.448;2023-01-26T09:23:04;4.90;99.90
25949;DHT22;13961;51.178;4.448;2023-01-26T09:25:30;5.10;99.90
25949;DHT22;13961;51.178;4.448;2023-01-26T09:27:55;5.00;99.90
25949;DHT22;13961;51.178;4.448;2023-01-26T09:30:22;5.00;99.90
25949;DHT22;13961;51.178;4.448;2023-01-26T09:32:50;5.30;99.90
25949;DHT22;13961;51.178;4.448;2023-01-26T09:35:15;5.20;99.90
25949;DHT22;13961;51.178;4.448;2023-01-26T09:37:44;5.20;99.90
25949;DHT22;13961;51.178;4.448;2023-01-26T09:40:21;5.30;99.90
25949;DHT22;13961;51.178;4.448;2023-01-26T09:45:42;5.30;99.90
25949;DHT22;13961;51.178;4.448;2023-01-26T09:49:16;5.30;99.90
25949;DHT22;13961;51.178;4.448;2023-01-26T09:51:27;5.40;99.90
25949;DHT22;13961;51.178;4.448;2023-01-26T09:54:00;5.60;99.90
25949;DHT22;13961;51.178;4.448;2023-01-26T09:56:29;5.70;99.90
25949;DHT22;13961;51.178;4.448;2023-01-26T10:01:41;5.40;99.90
25949;DHT22;13961;51.178;4.448;2023-01-26T10:04:29;5.60;99.90
25949;DHT22;13961;51.178;4.448;2023-01-26T10:07:00;5.60;99.90
25949;DHT22;13961;51.178;4.448;2023-01-26T10:09:29;5.70;99.90
25949;DHT22;13961;51.178;4.448;2023-01-26T10:12:01;5.80;99.90
25949;DHT22;13961;51.178;4.448;2023-01-26T10:15:05;5.90;99.90
25949;DHT22;13961;51.178;4.448;2023-01-26T10:17:35;6.00;99.90
25949;DHT22;13961;51.178;4.448;2023-01-26T10:22:47;6.10;99.90
25949;DHT22;13961;51.178;4.448;2023-01-26T10:25:36;6.10;99.90
25949;DHT22;13961;51.178;4.448;2023-01-26T10:30:48;6.30;99.90
25949;DHT22;13961;51.178;4.448;2023-01-26T10:33:22;6.50;99.90
25949;DHT22;13961;51.178;4.448;2023-01-26T10:35:50;6.60;99.90
25949;DHT22;13961;51.178;4.448;2023-01-26T10:43:34;6.50;99.90
25949;DHT22;13961;51.178;4.448;2023-01-26T10:46:03;6.80;99.90
25949;DHT22;13961;51.178;4.448;2023-01-26T10:48:29;6.70;99.90
25949;DHT22;13961;51.178;4.448;2023-01-26T10:51:13;6.90;99.90
25949;DHT22;13961;51.178;4.448;2023-01-26T10:53:39;7.00;99.90
25949;DHT22;13961;51.178;4.448;2023-01-26T10:56:11;6.80;99.90
25949;DHT22;13961;51.178;4.448;2023-01-26T10:58:53;6.80;99.90
25949;DHT22;13961;51.178;4.448;2023-01-26T11:01:21;6.80;99.90
25949;DHT22;13961;51.178;4.448;2023-01-26T11:04:06;7.00;99.90
25949;DHT22;13961;51.178;4.448;2023-01-26T11:06:36;7.00;99.90
25949;DHT22;13961;51.178;4.448;2023-01-26T11:09:26;6.90;99.90
25949;DHT22;13961;51.178;4.448;2023-01-26T11:11:58;7.10;99.90
25949;DHT22;13961;51.178;4.448;2023-01-26T11:14:25;7.30;99.90
25949;DHT22;13961;51.178;4.448;2023-01-26T11:22:32;7.40;99.90
25949;DHT22;13961;51.178;4.448;2023-01-26T11:44:47;7.40;99.90
25949;DHT22;13961;51.178;4.448;2023-01-26T11:47:44;7.60;99.90
25949;DHT22;13961;51.178;4.448;2023-01-26T11:50:22;7.60;99.90
25949;DHT22;13961;51.178;4.448;2023-01-26T11:52:58;8.00;99.90
25949;DHT22;13961;51.178;4.448;2023-01-26T11:55:35;8.10;99.90
25949;DHT22;13961;51.178;4.448;2023-01-26T11:58:23;8.00;99.90
25949;DHT22;13961;51.178;4.448;2023-01-26T12:01:04;8.10;99.90
25949;DHT22;13961;51.178;4.448;2023-01-26T12:03:46;8.10;99.90
25949;DHT22;13961;51.178;4.448;2023-01-26T12:06:36;8.20;99.90
25949;DHT22;13961;51.178;4.448;2023-01-26T12:09:38;8.30;99.90
25949;DHT22;13961;51.178;4.448;2023-01-26T12:15:05;8.40;99.90
25949;DHT22;13961;51.178;4.448;2023-01-26T12:18:21;8.30;99.90
25949;DHT22;13961;51.178;4.448;2023-01-26T12:20:42;8.30;99.90
25949;DHT22;13961;51.178;4.448;2023-01-26T12:23:29;8.50;99.90
25949;DHT22;13961;51.178;4.448;2023-01-26T12:26:06;8.50;99.90
25949;DHT22;13961;51.178;4.448;2023-01-26T12:29:27;8.60;99.90
25949;DHT22;13961;51.178;4.448;2023-01-26T12:32:01;8.60;99.90
25949;DHT22;13961;51.178;4.448;2023-01-26T12:34:31;8.80;99.90
25949;DHT22;13961;51.178;4.448;2023-01-26T12:42:18;8.80;99.90
25949;DHT22;13961;51.178;4.448;2023-01-26T12:44:59;8.80;99.90
25949;DHT22;13961;51.178;4.448;2023-01-26T12:47:36;8.80;99.90
25949;DHT22;13961;51.178;4.448;2023-01-26T12:53:10;8.80;99.90
25949;DHT22;13961;51.178;4.448;2023-01-26T12:55:46;8.80;99.90
25949;DHT22;13961;51.178;4.448;2023-01-26T13:01:03;8.90;99.90
25949;DHT22;13961;51.178;4.448;2023-01-26T13:03:40;9.00;99.90
25949;DHT22;13961;51.178;4.448;2023-01-26T13:13:33;8.70;99.90
25949;DHT22;13961;51.178;4.448;2023-01-26T13:18:56;9.00;99.90
25949;DHT22;13961;51.178;4.448;2023-01-26T13:26:51;9.10;99.90
25949;DHT22;13961;51.178;4.448;2023-01-26T13:29:27;9.30;99.90
25949;DHT22;13961;51.178;4.448;2023-01-26T13:34:35;8.80;99.90
25949;DHT22;13961;51.178;4.448;2023-01-26T13:40:00;8.80;99.90
25949;DHT22;13961;51.178;4.448;2023-01-26T13:42:45;8.80;99.90
25949;DHT22;13961;51.178;4.448;2023-01-26T13:45:31;9.00;99.90
25949;DHT22;13961;51.178;4.448;2023-01-26T13:48:01;8.90;99.90
25949;DHT22;13961;51.178;4.448;2023-01-26T13:50:33;8.80;99.90
25949;DHT22;13961;51.178;4.448;2023-01-26T13:55:57;8.90;99.90
25949;DHT22;13961;51.178;4.448;2023-01-26T13:58:23;9.20;99.90
25949;DHT22;13961;51.178;4.448;2023-01-26T14:01:10;9.00;99.90
25949;DHT22;13961;51.178;4.448;2023-01-26T14:03:36;9.00;99.90
25949;DHT22;13961;51.178;4.448;2023-01-26T14:06:10;9.00;99.90
25949;DHT22;13961;51.178;4.448;2023-01-26T14:08:38;9.20;99.90
25949;DHT22;13961;51.178;4.448;2023-01-26T14:11:15;9.10;99.90
25949;DHT22;13961;51.178;4.448;2023-01-26T14:13:41;9.00;99.90
25949;DHT22;13961;51.178;4.448;2023-01-26T14:16:20;8.80;99.90
25949;DHT22;13961;51.178;4.448;2023-01-26T14:18:50;8.70;99.90
25949;DHT22;13961;51.178;4.448;2023-01-26T14:21:21;8.70;99.90
25949;DHT22;13961;51.178;4.448;2023-01-26T14:23:54;8.70;99.90
25949;DHT22;13961;51.178;4.448;2023-01-26T14:26:30;8.80;99.90
25949;DHT22;13961;51.178;4.448;2023-01-26T14:28:59;8.80;99.90
25949;DHT22;13961;51.178;4.448;2023-01-26T14:31:27;9.00;99.90
25949;DHT22;13961;51.178;4.448;2023-01-26T14:33:58;9.20;99.90
25949;DHT22;13961;51.178;4.448;2023-01-26T14:36:27;9.00;99.90
25949;DHT22;13961;51.178;4.448;2023-01-26T14:38:55;9.00;99.90
25949;DHT22;13961;51.178;4.448;2023-01-26T14:41:29;9.10;99.90
25949;DHT22;13961;51.178;4.448;2023-01-26T14:43:57;9.20;99.90
25949;DHT22;13961;51.178;4.448;2023-01-26T14:47:05;9.00;99.90
25949;DHT22;13961;51.178;4.448;2023-01-26T14:52:24;9.00;99.90
25949;DHT22;13961;51.178;4.448;2023-01-26T14:54:52;9.00;99.90
25949;DHT22;13961;51.178;4.448;2023-01-26T14:57:21;9.20;99.90
25949;DHT22;13961;51.178;4.448;2023-01-26T14:59:51;9.00;99.90
25949;DHT22;13961;51.178;4.448;2023-01-26T15:02:24;9.00;99.90
25949;DHT22;13961;51.178;4.448;2023-01-26T15:04:55;9.10;99.90
25949;DHT22;13961;51.178;4.448;2023-01-26T15:10:40;8.90;99.90
25949;DHT22;13961;51.178;4.448;2023-01-26T15:15:37;8.80;99.90
25949;DHT22;13961;51.178;4.448;2023-01-26T15:20:43;8.70;99.90
25949;DHT22;13961;51.178;4.448;2023-01-26T15:23:30;8.70;99.90
25949;DHT22;13961;51.178;4.448;2023-01-26T15:26:10;8.60;99.90
25949;DHT22;13961;51.178;4.448;2023-01-26T15:28:37;8.60;99.90
25949;DHT22;13961;51.178;4.448;2023-01-26T15:31:03;8.40;99.90
25949;DHT22;13961;51.178;4.448;2023-01-26T15:33:46;8.60;99.90
25949;DHT22;13961;51.178;4.448;2023-01-26T15:36:22;8.80;99.90
25949;DHT22;13961;51.178;4.448;2023-01-26T15:38:57;8.80;99.90
25949;DHT22;13961;51.178;4.448;2023-01-26T15:41:24;8.80;99.90
25949;DHT22;13961;51.178;4.448;2023-01-26T15:43:49;8.80;99.90
25949;DHT22;13961;51.178;4.448;2023-01-26T15:46:16;8.90;99.90
25949;DHT22;13961;51.178;4.448;2023-01-26T15:48:42;8.70;99.90
25949;DHT22;13961;51.178;4.448;2023-01-26T15:51:13;8.70;99.90
25949;DHT22;13961;51.178;4.448;2023-01-26T15:53:40;9.00;99.90
25949;DHT22;13961;51.178;4.448;2023-01-26T15:56:11;8.70;99.90
25949;DHT22;13961;51.178;4.448;2023-01-26T15:58:39;8.50;99.90
25949;DHT22;13961;51.178;4.448;2023-01-26T16:01:05;8.90;99.90
25949;DHT22;13961;51.178;4.448;2023-01-26T16:03:32;8.80;99.90
25949;DHT22;13961;51.178;4.448;2023-01-26T16:05:58;8.90;99.90
25949;DHT22;13961;51.178;4.448;2023-01-26T16:08:23;8.80;99.90
25949;DHT22;13961;51.178;4.448;2023-01-26T16:10:51;8.90;99.90
25949;DHT22;13961;51.178;4.448;2023-01-26T16:13:19;8.90;99.90
25949;DHT22;13961;51.178;4.448;2023-01-26T16:18:12;8.80;99.90
25949;DHT22;13961;51.178;4.448;2023-01-26T16:20:40;9.00;99.90
25949;DHT22;13961;51.178;4.448;2023-01-26T16:23:27;8.80;99.90
25949;DHT22;13961;51.178;4.448;2023-01-26T16:25:53;8.90;99.90
25949;DHT22;13961;51.178;4.448;2023-01-26T16:28:20;8.90;99.90
25949;DHT22;13961;51.178;4.448;2023-01-26T16:30:47;8.80;99.90
25949;DHT22;13961;51.178;4.448;2023-01-26T16:33:18;8.90;99.90
25949;DHT22;13961;51.178;4.448;2023-01-26T16:35:48;8.70;99.90
25949;DHT22;13961;51.178;4.448;2023-01-26T16:38:14;8.70;99.90
25949;DHT22;13961;51.178;4.448;2023-01-26T16:40:42;8.60;99.90
25949;DHT22;13961;51.178;4.448;2023-01-26T16:43:23;8.50;99.90
25949;DHT22;13961;51.178;4.448;2023-01-26T16:45:49;8.30;99.90
25949;DHT22;13961;51.178;4.448;2023-01-26T16:48:15;8.20;99.90
25949;DHT22;13961;51.178;4.448;2023-01-26T16:50:43;8.00;99.90
25949;DHT22;13961;51.178;4.448;2023-01-26T16:53:27;7.90;99.90
25949;DHT22;13961;51.178;4.448;2023-01-26T16:55:53;7.90;99.90
25949;DHT22;13961;51.178;4.448;2023-01-26T16:58:20;7.90;99.90
25949;DHT22;13961;51.178;4.448;2023-01-26T17:00:46;7.80;99.90
25949;DHT22;13961;51.178;4.448;2023-01-26T17:03:12;7.80;99.90
25949;DHT22;13961;51.178;4.448;2023-01-26T17:05:40;7.70;99.90
25949;DHT22;13961;51.178;4.448;2023-01-26T17:08:06;7.80;99.90
25949;DHT22;13961;51.178;4.448;2023-01-26T17:10:32;7.70;99.90
25949;DHT22;13961;51.178;4.448;2023-01-26T17:12:58;7.60;99.90
25949;DHT22;13961;51.178;4.448;2023-01-26T17:15:24;7.80;99.90
25949;DHT22;13961;51.178;4.448;2023-01-26T17:17:52;7.70;99.90
25949;DHT22;13961;51.178;4.448;2023-01-26T17:20:18;8.00;99.90
25949;DHT22;13961;51.178;4.448;2023-01-26T17:22:44;7.90;99.90
25949;DHT22;13961;51.178;4.448;2023-01-26T17:25:10;8.00;99.90
25949;DHT22;13961;51.178;4.448;2023-01-26T17:27:36;7.90;99.90
25949;DHT22;13961;51.178;4.448;2023-01-26T17:30:03;8.10;99.90
25949;DHT22;13961;51.178;4.448;2023-01-26T17:32:29;8.00;99.90
25949;DHT22;13961;51.178;4.448;2023-01-26T17:34:56;8.10;99.90
25949;DHT22;13961;51.178;4.448;2023-01-26T17:37:26;8.00;99.90
25949;DHT22;13961;51.178;4.448;2023-01-26T17:39:52;8.20;99.90
25949;DHT22;13961;51.178;4.448;2023-01-26T17:42:18;8.20;99.90
25949;DHT22;13961;51.178;4.448;2023-01-26T17:44:44;8.10;99.90
25949;DHT22;13961;51.178;4.448;2023-01-26T17:47:09;8.30;99.90
25949;DHT22;13961;51.178;4.448;2023-01-26T17:49:36;8.10;99.90